Time;durP1;ratioP1;P1;durP2;ratioP2;P2;SDS_P1;SDS_P2;PMS_P1;PMS_P2;Temp;Humidity;BMP_temperature;BMP_pressure;BME280_temperature;BME280_humidity;BME280_pressure;Samples;Min_cycle;Max_cycle;Signal;HPM_P1;HPM_P2
2024/03/05 00:02:24;;;;;;;7.45;3.03;;;;;;;;;;5043105;28;20087;-85
2024/03/05 00:20:00;;;;;;;8.35;3.20;;;;;;;;;;5015468;24;20058;-80
2024/03/05 00:22:50;;;;;;;8.32;2.97;;;;;;;;;;4768996;30;20059;-81
2024/03/05 00:29:33;;;;;;;10.38;3.25;;;;;;;;;;5062056;24;20023;-83
2024/03/05 01:01:29;;;;;;;10.15;3.08;;;;;;;;;;4798257;29;20060;-79
2024/03/05 01:09:16;;;;;;;6.82;3.13;;;;;;;;;;4866452;24;20059;-80
2024/03/05 01:11:47;;;;;;;7.72;3.90;;;;;;;;;;4785965;30;20084;-87
2024/03/05 01:14:45;;;;;;;8.85;3.75;;;;;;;;;;4803562;29;20047;-81
2024/03/05 01:17:15;;;;;;;6.30;3.22;;;;;;;;;;4786479;29;20055;-84
2024/03/05 01:27:52;;;;;;;4.00;1.77;;;;;;;;;;4860491;24;20063;-85
2024/03/05 01:30:24;;;;;;;5.05;2.20;;;;;;;;;;4785882;29;20058;-80
2024/03/05 01:36:57;;;;;;;5.63;2.58;;;;;;;;;;4785270;29;20063;-80
2024/03/05 01:39:28;;;;;;;10.18;3.78;;;;;;;;;;4776614;30;20431;-82
2024/03/05 01:41:59;;;;;;;6.80;3.70;;;;;;;;;;4785206;30;20058;-80
2024/03/05 01:44:29;;;;;;;11.43;4.25;;;;;;;;;;4762307;30;20471;-84
2024/03/05 01:47:08;;;;;;;8.55;3.75;;;;;;;;;;4767939;30;20074;-82
2024/03/05 01:49:38;;;;;;;10.68;4.40;;;;;;;;;;4751949;30;20060;-80
2024/03/05 01:55:23;;;;;;;8.73;3.88;;;;;;;;;;4787972;30;19952;-81
2024/03/05 01:57:54;;;;;;;7.03;3.30;;;;;;;;;;4788086;30;20054;-81
2024/03/05 02:00:26;;;;;;;9.85;3.45;;;;;;;;;;4787345;30;20047;-81
2024/03/05 02:17:21;;;;;;;3.60;1.83;;;;;;;;;;4770606;30;20056;-82
2024/03/05 02:19:51;;;;;;;4.18;1.70;;;;;;;;;;4754410;30;20052;-81
2024/03/05 02:22:22;;;;;;;4.43;1.52;;;;;;;;;;4769470;30;20047;-81
2024/03/05 02:24:51;;;;;;;9.35;1.33;;;;;;;;;;4768502;30;20060;-81
2024/03/05 02:27:21;;;;;;;3.75;1.45;;;;;;;;;;4768970;30;20063;-81
2024/03/05 02:30:10;;;;;;;7.20;1.70;;;;;;;;;;4769160;30;20056;-82
2024/03/05 02:32:42;;;;;;;10.55;2.47;;;;;;;;;;4768922;30;20519;-85
2024/03/05 02:35:13;;;;;;;4.22;1.40;;;;;;;;;;4771751;30;20060;-84
2024/03/05 02:37:43;;;;;;;3.70;1.08;;;;;;;;;;4772113;30;20056;-80
2024/03/05 02:40:14;;;;;;;5.40;1.75;;;;;;;;;;4772255;30;20048;-80
2024/03/05 02:42:46;;;;;;;8.90;1.40;;;;;;;;;;4772932;30;20063;-81
2024/03/05 02:45:18;;;;;;;3.63;1.23;;;;;;;;;;4771913;30;20058;-81
2024/03/05 02:47:48;;;;;;;4.60;0.90;;;;;;;;;;4772537;30;20051;-82
2024/03/05 02:50:19;;;;;;;3.50;0.98;;;;;;;;;;4771835;30;20504;-80
2024/03/05 02:52:49;;;;;;;4.95;1.42;;;;;;;;;;4772726;30;20079;-80
2024/03/05 02:55:19;;;;;;;8.10;1.55;;;;;;;;;;4772303;30;20059;-83
2024/03/05 02:57:49;;;;;;;6.38;1.52;;;;;;;;;;4771672;30;20063;-80
2024/03/05 03:00:19;;;;;;;10.23;2.13;;;;;;;;;;4755503;30;20059;-79
2024/03/05 03:02:50;;;;;;;2.58;1.23;;;;;;;;;;4771968;30;20059;-80
2024/03/05 03:05:23;;;;;;;3.67;1.10;;;;;;;;;;4772265;30;20055;-81
2024/03/05 03:07:53;;;;;;;5.30;1.10;;;;;;;;;;4771726;30;20071;-79
2024/03/05 03:10:25;;;;;;;5.82;1.85;;;;;;;;;;4771747;30;20411;-80
2024/03/05 03:12:56;;;;;;;6.05;1.15;;;;;;;;;;4772339;30;20047;-81
2024/03/05 03:15:30;;;;;;;4.60;1.95;;;;;;;;;;4772230;30;20389;-82
2024/03/05 03:18:01;;;;;;;4.22;1.50;;;;;;;;;;4772144;30;20404;-83
2024/03/05 03:20:32;;;;;;;6.72;1.13;;;;;;;;;;4772075;30;20079;-82
2024/03/05 03:23:03;;;;;;;3.75;1.30;;;;;;;;;;4771969;30;20051;-82
2024/03/05 03:25:34;;;;;;;5.25;1.10;;;;;;;;;;4756056;30;20056;-82
2024/03/05 03:28:05;;;;;;;8.18;1.23;;;;;;;;;;4771789;30;20051;-82
2024/03/05 03:30:37;;;;;;;3.05;1.20;;;;;;;;;;4771017;30;20063;-84
2024/03/05 03:33:08;;;;;;;5.07;1.05;;;;;;;;;;4772016;30;20058;-82
2024/03/05 03:35:38;;;;;;;4.85;0.90;;;;;;;;;;4770937;30;20530;-87
2024/03/05 03:38:08;;;;;;;4.70;0.93;;;;;;;;;;4770736;30;20068;-83
2024/03/05 03:40:41;;;;;;;4.53;0.90;;;;;;;;;;4771244;30;20071;-84
2024/03/05 03:43:12;;;;;;;4.60;1.20;;;;;;;;;;4771987;30;20056;-83
2024/03/05 03:45:42;;;;;;;2.83;0.90;;;;;;;;;;4770056;30;20067;-82
2024/03/05 03:48:12;;;;;;;4.63;1.23;;;;;;;;;;4771303;30;20044;-83
2024/03/05 03:50:43;;;;;;;4.20;1.20;;;;;;;;;;4771712;30;20062;-82
2024/03/05 03:53:14;;;;;;;3.10;1.25;;;;;;;;;;4771570;30;20048;-81
2024/03/05 03:55:45;;;;;;;2.88;1.13;;;;;;;;;;4771466;30;20510;-81
2024/03/05 03:58:15;;;;;;;8.52;1.30;;;;;;;;;;4771466;30;20472;-81
2024/03/05 04:00:45;;;;;;;6.50;1.63;;;;;;;;;;4771191;30;20059;-82
2024/03/05 04:03:15;;;;;;;6.00;1.98;;;;;;;;;;4770802;30;20511;-81
2024/03/05 04:05:45;;;;;;;8.57;2.08;;;;;;;;;;4755519;30;20416;-82
2024/03/05 04:08:18;;;;;;;2.65;1.20;;;;;;;;;;4755895;30;20059;-80
2024/03/05 04:10:49;;;;;;;4.60;1.70;;;;;;;;;;4770471;30;20497;-80
2024/03/05 04:13:19;;;;;;;9.88;1.30;;;;;;;;;;4770362;30;20062;-82
2024/03/05 04:15:50;;;;;;;2.63;0.95;;;;;;;;;;4755204;30;20077;-81
2024/03/05 04:18:21;;;;;;;4.05;1.25;;;;;;;;;;4770612;30;20067;-82
2024/03/05 04:20:53;;;;;;;4.32;1.20;;;;;;;;;;4770471;30;20063;-80
2024/03/05 04:23:24;;;;;;;2.78;1.05;;;;;;;;;;4754441;30;20066;-85
2024/03/05 04:26:01;;;;;;;3.63;1.13;;;;;;;;;;4755496;30;20056;-81
2024/03/05 04:28:48;;;;;;;4.63;0.85;;;;;;;;;;4770326;30;20060;-81
2024/03/05 04:31:22;;;;;;;1.98;0.90;;;;;;;;;;4754336;30;20063;-82
2024/03/05 04:33:58;;;;;;;4.97;1.50;;;;;;;;;;4769977;30;20063;-85
2024/03/05 04:36:29;;;;;;;2.90;1.23;;;;;;;;;;4770883;30;20372;-79
2024/03/05 04:39:00;;;;;;;4.78;1.15;;;;;;;;;;4769982;30;20062;-84
2024/03/05 04:41:31;;;;;;;4.43;1.20;;;;;;;;;;4769923;30;20067;-81
2024/03/05 04:44:02;;;;;;;6.55;1.13;;;;;;;;;;4770067;30;20063;-81
2024/03/05 04:46:32;;;;;;;2.92;1.10;;;;;;;;;;4769817;30;20047;-82
2024/03/05 04:49:06;;;;;;;4.05;1.48;;;;;;;;;;4787459;30;20396;-80
2024/03/05 04:51:37;;;;;;;2.03;1.10;;;;;;;;;;4787699;30;20063;-81
2024/03/05 04:54:09;;;;;;;4.32;1.10;;;;;;;;;;4773288;30;20050;-81
2024/03/05 04:56:40;;;;;;;3.20;1.33;;;;;;;;;;4787523;29;20054;-85
2024/03/05 04:59:10;;;;;;;3.85;0.95;;;;;;;;;;4787536;30;20056;-81
2024/03/05 05:01:44;;;;;;;1.95;0.90;;;;;;;;;;4785635;29;20051;-82
2024/03/05 05:04:14;;;;;;;4.18;1.00;;;;;;;;;;4772640;30;20066;-81
2024/03/05 05:06:45;;;;;;;;;;;;;;;;;;4788238;30;20427;-82
2024/03/05 05:09:16;;;;;;;2.90;1.00;;;;;;;;;;4787441;30;19937;-80
2024/03/05 05:11:47;;;;;;;4.65;1.00;;;;;;;;;;4786148;29;20059;-83
2024/03/05 05:14:18;;;;;;;4.70;0.88;;;;;;;;;;4787296;29;20063;-82
2024/03/05 05:16:47;;;;;;;1.70;0.82;;;;;;;;;;4786418;29;20419;-81
2024/03/05 05:19:18;;;;;;;7.13;0.90;;;;;;;;;;4787395;30;20039;-81
2024/03/05 05:21:49;;;;;;;4.72;1.10;;;;;;;;;;4787460;30;20055;-83
2024/03/05 05:24:20;;;;;;;3.10;1.27;;;;;;;;;;4772286;30;20063;-84
2024/03/05 05:26:51;;;;;;;3.33;1.08;;;;;;;;;;4773743;30;20160;-84
2024/03/05 05:29:22;;;;;;;5.63;1.10;;;;;;;;;;4788297;30;20385;-83
2024/03/05 05:32:08;;;;;;;2.17;0.93;;;;;;;;;;4788461;30;20058;-83
2024/03/05 05:34:39;;;;;;;4.88;1.13;;;;;;;;;;4788244;30;20051;-82
2024/03/05 05:37:09;;;;;;;2.30;0.80;;;;;;;;;;4788133;30;20067;-83
2024/03/05 05:39:39;;;;;;;4.22;1.08;;;;;;;;;;4787924;30;20056;-82
2024/03/05 05:42:11;;;;;;;4.40;1.10;;;;;;;;;;4787866;30;20390;-85
2024/03/05 05:44:44;;;;;;;3.20;1.10;;;;;;;;;;4789061;30;20051;-81
2024/03/05 05:47:14;;;;;;;;;;;;;;;;;;4786607;30;20055;-85
2024/03/05 05:49:45;;;;;;;4.20;1.00;;;;;;;;;;4789235;30;19932;-81
2024/03/05 05:52:17;;;;;;;4.20;1.13;;;;;;;;;;4787805;30;20407;-81
2024/03/05 05:54:49;;;;;;;9.30;0.82;;;;;;;;;;4788301;30;20510;-82
2024/03/05 05:57:22;;;;;;;3.50;1.27;;;;;;;;;;4788178;30;20047;-84
2024/03/05 05:59:54;;;;;;;4.32;0.98;;;;;;;;;;4787283;30;20518;-82
2024/03/05 06:02:26;;;;;;;5.60;1.13;;;;;;;;;;4787103;30;20055;-82
2024/03/05 06:04:58;;;;;;;3.38;1.27;;;;;;;;;;4787982;30;20399;-88
2024/03/05 06:07:30;;;;;;;5.15;1.23;;;;;;;;;;4787144;29;20048;-81
2024/03/05 06:10:00;;;;;;;17.40;1.58;;;;;;;;;;4775216;30;20051;-82
2024/03/05 06:12:31;;;;;;;5.50;1.20;;;;;;;;;;4790684;30;20066;-85
2024/03/05 06:15:01;;;;;;;3.22;1.27;;;;;;;;;;4791129;30;20055;-81
2024/03/05 06:17:31;;;;;;;4.45;1.13;;;;;;;;;;4791546;30;20055;-89
2024/03/05 06:20:04;;;;;;;3.50;1.00;;;;;;;;;;4774759;30;20385;-87
2024/03/05 06:22:35;;;;;;;5.55;0.88;;;;;;;;;;4790901;30;20047;-80
2024/03/05 06:25:12;;;;;;;5.70;1.00;;;;;;;;;;4791192;30;20052;-81
2024/03/05 06:27:44;;;;;;;4.60;0.90;;;;;;;;;;4790259;30;20059;-84
2024/03/05 06:30:21;;;;;;;2.75;1.00;;;;;;;;;;4790259;30;20075;-81
2024/03/05 06:32:52;;;;;;;4.60;1.10;;;;;;;;;;4774498;30;20063;-83
2024/03/05 06:35:26;;;;;;;5.47;1.00;;;;;;;;;;4790383;30;20164;-81
2024/03/05 06:37:58;;;;;;;14.68;1.02;;;;;;;;;;4790877;30;20050;-85
2024/03/05 06:40:29;;;;;;;3.20;0.68;;;;;;;;;;4790949;30;20051;-81
2024/03/05 06:43:05;;;;;;;4.15;1.05;;;;;;;;;;4775530;30;20510;-81
2024/03/05 06:45:35;;;;;;;2.70;0.80;;;;;;;;;;4789847;30;20051;-81
2024/03/05 06:48:09;;;;;;;7.30;1.30;;;;;;;;;;4790501;30;20070;-81
2024/03/05 06:50:52;;;;;;;2.42;0.93;;;;;;;;;;4790094;30;20070;-80
2024/03/05 06:59:04;;;;;;;5.78;1.00;;;;;;;;;;4789727;30;20056;-81
2024/03/05 07:01:34;;;;;;;3.50;1.00;;;;;;;;;;4790477;30;20483;-82
2024/03/05 07:04:06;;;;;;;2.70;1.63;;;;;;;;;;4790653;30;20491;-81
2024/03/05 07:06:36;;;;;;;3.90;1.02;;;;;;;;;;4775519;30;20051;-80
2024/03/05 07:09:06;;;;;;;4.72;0.88;;;;;;;;;;4791228;30;20066;-80
2024/03/05 07:11:36;;;;;;;4.10;1.02;;;;;;;;;;4791542;30;20492;-80
2024/03/05 07:14:07;;;;;;;1.95;0.90;;;;;;;;;;4780611;30;20055;-79
2024/03/05 07:16:38;;;;;;;1.80;0.95;;;;;;;;;;4798946;29;20055;-78
2024/03/05 07:19:08;;;;;;;3.67;0.90;;;;;;;;;;4796741;29;20049;-80
2024/03/05 07:21:39;;;;;;;4.00;0.80;;;;;;;;;;4799037;30;20055;-80
2024/03/05 07:24:10;;;;;;;2.00;0.77;;;;;;;;;;4789159;30;20067;-82
2024/03/05 07:26:41;;;;;;;2.58;0.90;;;;;;;;;;4789426;30;20537;-81
2024/03/05 07:29:29;;;;;;;2.15;0.80;;;;;;;;;;4789189;30;20062;-83
2024/03/05 07:31:59;;;;;;;2.13;0.80;;;;;;;;;;4790143;30;20486;-80
2024/03/05 07:34:29;;;;;;;1.88;0.90;;;;;;;;;;4789314;30;20063;-82
2024/03/05 07:37:00;;;;;;;3.97;0.88;;;;;;;;;;4773556;30;20063;-82
2024/03/05 07:39:30;;;;;;;4.32;1.00;;;;;;;;;;4788787;30;20066;-81
2024/03/05 07:42:02;;;;;;;4.78;0.82;;;;;;;;;;4789338;30;20062;-81
2024/03/05 07:44:34;;;;;;;6.95;1.00;;;;;;;;;;4788827;30;20076;-83
2024/03/05 07:47:04;;;;;;;6.15;1.10;;;;;;;;;;4789001;30;20065;-81
2024/03/05 07:49:36;;;;;;;3.13;0.90;;;;;;;;;;4788737;30;20051;-82
2024/03/05 07:52:07;;;;;;;4.03;1.00;;;;;;;;;;4789030;30;20059;-81
2024/03/05 07:54:37;;;;;;;5.13;0.98;;;;;;;;;;4788693;30;20059;-82
2024/03/05 07:57:06;;;;;;;5.70;0.90;;;;;;;;;;4788624;30;20071;-80
2024/03/05 07:59:36;;;;;;;5.28;1.08;;;;;;;;;;4789004;30;20063;-80
2024/03/05 08:02:07;;;;;;;3.92;1.30;;;;;;;;;;4782801;29;20051;-80
2024/03/05 08:04:39;;;;;;;2.90;0.77;;;;;;;;;;4772689;30;20495;-82
2024/03/05 08:07:11;;;;;;;1.65;0.70;;;;;;;;;;4787501;30;20055;-82
2024/03/05 08:09:42;;;;;;;3.88;1.00;;;;;;;;;;4789020;30;20356;-82
2024/03/05 08:12:11;;;;;;;2.00;1.13;;;;;;;;;;4788994;30;20183;-81
2024/03/05 08:14:43;;;;;;;1.55;0.80;;;;;;;;;;4788373;29;20051;-82
2024/03/05 08:17:14;;;;;;;5.65;1.17;;;;;;;;;;4789042;30;20066;-80
2024/03/05 08:19:44;;;;;;;3.78;1.00;;;;;;;;;;4789027;30;20059;-81
2024/03/05 08:22:14;;;;;;;3.38;0.85;;;;;;;;;;4788772;30;20051;-82
2024/03/05 08:24:45;;;;;;;7.68;1.00;;;;;;;;;;4788469;29;20511;-81
2024/03/05 08:27:15;;;;;;;2.97;0.90;;;;;;;;;;4787576;30;20047;-81
2024/03/05 08:29:49;;;;;;;5.75;0.85;;;;;;;;;;4788572;30;20047;-81
2024/03/05 08:32:20;;;;;;;3.75;0.73;;;;;;;;;;4787736;29;20078;-80
2024/03/05 08:34:50;;;;;;;2.03;0.80;;;;;;;;;;4788201;30;20043;-80
2024/03/05 08:37:20;;;;;;;2.85;1.00;;;;;;;;;;4788800;29;20372;-80
2024/03/05 08:39:50;;;;;;;6.22;0.80;;;;;;;;;;4788159;29;20055;-80
2024/03/05 08:42:21;;;;;;;3.10;0.82;;;;;;;;;;4788848;30;20055;-82
2024/03/05 08:44:51;;;;;;;2.20;0.80;;;;;;;;;;4788464;29;20515;-80
2024/03/05 08:47:21;;;;;;;4.25;0.73;;;;;;;;;;4788393;30;20066;-81
2024/03/05 08:49:52;;;;;;;1.35;0.80;;;;;;;;;;4787607;29;20503;-80
2024/03/05 08:52:25;;;;;;;1.88;0.60;;;;;;;;;;4788239;30;20055;-80
2024/03/05 08:54:56;;;;;;;2.83;0.63;;;;;;;;;;4788631;29;20062;-80
2024/03/05 08:57:26;;;;;;;3.00;0.73;;;;;;;;;;4788661;30;20066;-81
2024/03/05 08:59:56;;;;;;;2.63;0.77;;;;;;;;;;4788466;30;20062;-81
2024/03/05 09:02:26;;;;;;;5.82;0.55;;;;;;;;;;4788138;30;20063;-81
2024/03/05 09:04:56;;;;;;;3.72;0.73;;;;;;;;;;4788713;30;20055;-81
2024/03/05 09:07:27;;;;;;;5.93;0.80;;;;;;;;;;4788204;30;20054;-80
2024/03/05 09:09:57;;;;;;;3.17;0.98;;;;;;;;;;4789006;30;20062;-79
2024/03/05 09:12:28;;;;;;;4.30;0.82;;;;;;;;;;4786704;30;20055;-81
2024/03/05 09:14:58;;;;;;;3.65;0.80;;;;;;;;;;4788518;30;20059;-81
2024/03/05 09:17:28;;;;;;;2.08;0.80;;;;;;;;;;4788065;30;20066;-80
2024/03/05 09:19:59;;;;;;;1.92;0.98;;;;;;;;;;4788035;30;20055;-81
2024/03/05 09:22:30;;;;;;;10.52;1.23;;;;;;;;;;4788009;30;20085;-82
2024/03/05 09:25:01;;;;;;;7.45;1.27;;;;;;;;;;4787974;29;20047;-81
2024/03/05 09:27:31;;;;;;;1.83;1.00;;;;;;;;;;4788414;30;20055;-81
2024/03/05 09:30:02;;;;;;;3.03;0.98;;;;;;;;;;4787756;30;20054;-81
2024/03/05 09:32:32;;;;;;;2.65;0.95;;;;;;;;;;4788116;30;20499;-81
2024/03/05 09:35:08;;;;;;;2.65;0.75;;;;;;;;;;4787438;30;20063;-82
2024/03/05 09:37:39;;;;;;;3.63;0.95;;;;;;;;;;4788070;30;20399;-81
2024/03/05 09:40:16;;;;;;;4.28;0.90;;;;;;;;;;4787461;30;20503;-80
2024/03/05 09:42:48;;;;;;;4.88;0.80;;;;;;;;;;4788368;29;20047;-80
2024/03/05 09:45:19;;;;;;;2.08;1.00;;;;;;;;;;4791875;30;20051;-84
2024/03/05 09:47:50;;;;;;;1.77;0.88;;;;;;;;;;4791668;30;20059;-81
2024/03/05 09:50:21;;;;;;;3.85;1.00;;;;;;;;;;4791393;30;20051;-81
2024/03/05 09:52:52;;;;;;;5.15;1.08;;;;;;;;;;4790240;30;20047;-81
2024/03/05 09:55:23;;;;;;;3.55;1.10;;;;;;;;;;4792048;30;20407;-80
2024/03/05 09:57:58;;;;;;;3.00;1.00;;;;;;;;;;4790714;30;20068;-81
2024/03/05 10:00:30;;;;;;;2.45;0.90;;;;;;;;;;4791493;30;20051;-78
2024/03/05 10:03:01;;;;;;;2.10;0.90;;;;;;;;;;4791183;30;20062;-82
2024/03/05 10:05:31;;;;;;;2.00;0.80;;;;;;;;;;4791510;30;20421;-80
2024/03/05 10:08:02;;;;;;;2.58;0.95;;;;;;;;;;4791302;30;20054;-81
2024/03/05 10:10:33;;;;;;;4.38;0.88;;;;;;;;;;4791430;30;20510;-80
2024/03/05 10:13:05;;;;;;;3.40;1.02;;;;;;;;;;4791783;30;20066;-80
2024/03/05 10:15:42;;;;;;;2.40;0.90;;;;;;;;;;4790725;30;20592;-80
2024/03/05 10:18:34;;;;;;;6.55;1.00;;;;;;;;;;4790532;29;20062;-79
2024/03/05 10:21:33;;;;;;;4.65;0.90;;;;;;;;;;4791018;30;20058;-80
2024/03/05 10:24:05;;;;;;;3.95;1.23;;;;;;;;;;4773148;30;20051;-80
2024/03/05 10:26:36;;;;;;;3.22;1.10;;;;;;;;;;4790734;30;20054;-80
2024/03/05 10:29:08;;;;;;;5.55;1.10;;;;;;;;;;4791041;30;20051;-82
2024/03/05 10:31:42;;;;;;;2.67;0.95;;;;;;;;;;4790935;30;20051;-79
2024/03/05 10:34:15;;;;;;;4.03;1.00;;;;;;;;;;4790843;30;20054;-80
2024/03/05 10:36:47;;;;;;;5.03;1.30;;;;;;;;;;4791310;30;20051;-79
2024/03/05 10:39:17;;;;;;;5.70;1.27;;;;;;;;;;4790338;30;20511;-82
2024/03/05 10:41:55;;;;;;;4.70;1.52;;;;;;;;;;4791055;30;20054;-81
2024/03/05 10:44:26;;;;;;;4.65;2.05;;;;;;;;;;4796085;29;20521;-82
2024/03/05 10:46:57;;;;;;;5.82;2.53;;;;;;;;;;4806320;29;20054;-80
2024/03/05 10:49:28;;;;;;;7.45;3.30;;;;;;;;;;4784836;29;20044;-82
2024/03/05 10:51:59;;;;;;;7.18;3.03;;;;;;;;;;4772094;30;20492;-80
2024/03/05 10:54:30;;;;;;;6.80;3.40;;;;;;;;;;4795869;29;20055;-80
2024/03/05 10:57:03;;;;;;;;;;;;;;;;;;4807904;29;20046;-82
2024/03/05 10:59:47;;;;;;;7.82;3.80;;;;;;;;;;4804999;29;19937;-80
2024/03/05 11:02:25;;;;;;;8.48;4.35;;;;;;;;;;4807096;29;20390;-80
2024/03/05 11:04:59;;;;;;;10.95;4.18;;;;;;;;;;4807670;29;20414;-81
2024/03/05 11:07:33;;;;;;;7.40;4.07;;;;;;;;;;4807327;29;20387;-82
2024/03/05 11:10:09;;;;;;;7.45;4.20;;;;;;;;;;4800132;29;20054;-82
2024/03/05 11:12:42;;;;;;;7.63;3.30;;;;;;;;;;4806425;29;20521;-82
2024/03/05 11:15:13;;;;;;;9.10;4.20;;;;;;;;;;4806630;29;20078;-81
2024/03/05 11:17:44;;;;;;;10.48;4.65;;;;;;;;;;4808063;29;20047;-79
2024/03/05 11:20:42;;;;;;;8.90;4.40;;;;;;;;;;4806423;29;20047;-81
2024/03/05 11:23:13;;;;;;;11.70;4.40;;;;;;;;;;4806287;29;20399;-80
2024/03/05 11:25:51;;;;;;;9.70;4.82;;;;;;;;;;4807052;29;20062;-83
2024/03/05 11:28:22;;;;;;;12.80;4.65;;;;;;;;;;4805503;29;20384;-80
2024/03/05 11:31:16;;;;;;;11.68;5.22;;;;;;;;;;4803570;29;20046;-79
2024/03/05 11:34:05;;;;;;;10.77;4.57;;;;;;;;;;4807763;29;20054;-83
2024/03/05 11:36:40;;;;;;;10.82;5.47;;;;;;;;;;4808988;29;20414;-85
2024/03/05 11:39:19;;;;;;;8.98;4.75;;;;;;;;;;4807639;29;20047;-80
2024/03/05 11:41:51;;;;;;;11.23;5.05;;;;;;;;;;4808904;29;20199;-83
2024/03/05 11:44:41;;;;;;;11.48;4.55;;;;;;;;;;4792557;29;20051;-83
2024/03/05 11:47:22;;;;;;;9.50;4.32;;;;;;;;;;4807869;29;20047;-80
2024/03/05 11:50:03;;;;;;;10.35;5.22;;;;;;;;;;4811117;29;20062;-81
2024/03/05 12:01:50;;;;;;;7.18;3.65;;;;;;;;;;4811244;29;20506;-80
2024/03/05 12:04:23;;;;;;;6.88;3.28;;;;;;;;;;4805905;29;20074;-82
2024/03/05 12:07:10;;;;;;;;;;;;;;;;;;4804780;29;20054;-80
2024/03/05 12:09:41;;;;;;;6.88;2.88;;;;;;;;;;4806014;29;19929;-81
2024/03/05 12:12:15;;;;;;;5.53;2.63;;;;;;;;;;4790706;29;20529;-81
2024/03/05 12:14:50;;;;;;;9.40;4.18;;;;;;;;;;4806551;29;20510;-81
2024/03/05 12:17:24;;;;;;;6.30;2.25;;;;;;;;;;4805889;29;20215;-81
2024/03/05 12:20:07;;;;;;;6.60;2.40;;;;;;;;;;4807782;29;20050;-82
2024/03/05 12:22:41;;;;;;;7.63;2.70;;;;;;;;;;4805796;29;20055;-80
2024/03/05 12:25:12;;;;;;;4.43;1.95;;;;;;;;;;4805050;29;20062;-81
2024/03/05 12:27:49;;;;;;;4.47;2.13;;;;;;;;;;4805822;29;20046;-83
2024/03/05 12:30:20;;;;;;;7.63;3.70;;;;;;;;;;4790149;29;20059;-82
2024/03/05 12:32:56;;;;;;;8.07;3.65;;;;;;;;;;4805965;29;20050;-80
2024/03/05 12:35:27;;;;;;;6.32;2.88;;;;;;;;;;4801328;29;20179;-82
2024/03/05 12:38:05;;;;;;;3.83;2.28;;;;;;;;;;4788220;30;20055;-80
2024/03/05 12:40:36;;;;;;;11.75;6.05;;;;;;;;;;4787666;30;20047;-83
2024/03/05 12:43:08;;;;;;;11.05;6.68;;;;;;;;;;4788156;30;20439;-83
2024/03/05 12:45:42;;;;;;;18.10;9.43;;;;;;;;;;4788090;30;20043;-84
2024/03/05 12:48:12;;;;;;;7.53;3.30;;;;;;;;;;4771636;30;20059;-81
2024/03/05 12:50:43;;;;;;;4.97;2.47;;;;;;;;;;4787722;30;20058;-82
2024/03/05 12:53:14;;;;;;;6.53;2.35;;;;;;;;;;4787690;30;20066;-83
2024/03/05 12:55:45;;;;;;;4.53;2.40;;;;;;;;;;4787800;29;20524;-83
2024/03/05 12:58:15;;;;;;;5.63;2.90;;;;;;;;;;4789016;29;20059;-81
2024/03/05 13:00:45;;;;;;;5.82;3.50;;;;;;;;;;4799425;29;20047;-80
2024/03/05 13:03:20;;;;;;;5.13;2.30;;;;;;;;;;4806946;29;20054;-85
2024/03/05 13:05:54;;;;;;;6.55;2.70;;;;;;;;;;4806388;29;20054;-84
2024/03/05 13:08:28;;;;;;;4.43;2.95;;;;;;;;;;4805361;29;20046;-81
2024/03/05 13:11:01;;;;;;;7.85;3.97;;;;;;;;;;4807890;29;20522;-81
2024/03/05 13:13:36;;;;;;;3.83;2.25;;;;;;;;;;4807518;29;20062;-80
2024/03/05 13:16:10;;;;;;;7.80;4.32;;;;;;;;;;4793821;29;20051;-82
2024/03/05 13:18:40;;;;;;;4.22;2.60;;;;;;;;;;4820369;29;20062;-81
2024/03/05 13:21:10;;;;;;;4.03;2.20;;;;;;;;;;4803047;29;20419;-80
2024/03/05 13:23:40;;;;;;;7.20;2.10;;;;;;;;;;4802153;29;20055;-80
2024/03/05 13:26:10;;;;;;;4.38;2.00;;;;;;;;;;4818866;29;20055;-83
2024/03/05 13:28:41;;;;;;;4.53;1.92;;;;;;;;;;4790329;29;20058;-82
2024/03/05 13:31:11;;;;;;;4.90;3.10;;;;;;;;;;4806121;29;20387;-84
2024/03/05 13:33:42;;;;;;;3.30;2.20;;;;;;;;;;4790494;29;20059;-84
2024/03/05 13:36:14;;;;;;;4.20;2.40;;;;;;;;;;4802574;29;20047;-86
2024/03/05 13:38:49;;;;;;;5.43;2.53;;;;;;;;;;4771425;30;20058;-83
2024/03/05 13:41:28;;;;;;;4.20;2.53;;;;;;;;;;4763603;30;20455;-84
2024/03/05 13:43:59;;;;;;;9.30;6.45;;;;;;;;;;4784270;30;20439;-82
2024/03/05 13:46:29;;;;;;;3.78;2.25;;;;;;;;;;4769134;30;20044;-82
2024/03/05 13:49:01;;;;;;;4.20;2.22;;;;;;;;;;4784451;30;20160;-82
2024/03/05 13:51:37;;;;;;;5.65;2.22;;;;;;;;;;4769505;30;20055;-82
2024/03/05 13:54:18;;;;;;;5.97;2.75;;;;;;;;;;4769705;30;20113;-82
2024/03/05 13:56:50;;;;;;;3.70;2.33;;;;;;;;;;4765610;30;20400;-82
2024/03/05 13:59:22;;;;;;;4.18;1.92;;;;;;;;;;4785467;30;20067;-90
2024/03/05 14:01:55;;;;;;;6.97;2.60;;;;;;;;;;4769045;30;20055;-83
2024/03/05 14:04:26;;;;;;;6.18;2.53;;;;;;;;;;4784282;30;20066;-84
2024/03/05 14:06:58;;;;;;;5.22;3.28;;;;;;;;;;4753916;30;20723;-82
2024/03/05 14:09:29;;;;;;;5.32;2.10;;;;;;;;;;4779227;30;20055;-82
2024/03/05 14:12:10;;;;;;;6.38;2.50;;;;;;;;;;4785292;30;20059;-82
2024/03/05 14:14:47;;;;;;;9.25;2.45;;;;;;;;;;4770886;30;20064;-85
2024/03/05 14:17:18;;;;;;;4.20;2.50;;;;;;;;;;4753972;30;20070;-83
2024/03/05 14:19:49;;;;;;;4.68;2.60;;;;;;;;;;4757318;30;20466;-83
2024/03/05 14:22:20;;;;;;;3.90;1.95;;;;;;;;;;4777917;30;20066;-82
2024/03/05 14:24:57;;;;;;;5.38;2.83;;;;;;;;;;4773444;29;20055;-82
2024/03/05 14:27:28;;;;;;;5.70;2.95;;;;;;;;;;4774087;30;20059;-85
2024/03/05 14:29:59;;;;;;;3.22;1.80;;;;;;;;;;4793211;29;20066;-82
2024/03/05 14:32:30;;;;;;;6.78;2.50;;;;;;;;;;4805368;29;20053;-85
2024/03/05 14:35:00;;;;;;;7.22;2.47;;;;;;;;;;4790724;29;20059;-83
2024/03/05 14:37:30;;;;;;;4.60;2.53;;;;;;;;;;4789756;30;20055;-82
2024/03/05 14:40:03;;;;;;;5.88;2.30;;;;;;;;;;4790400;30;20051;-83
2024/03/05 14:42:37;;;;;;;7.05;2.60;;;;;;;;;;4775030;30;20059;-82
2024/03/05 14:45:17;;;;;;;5.00;2.60;;;;;;;;;;4775885;30;20395;-85
2024/03/05 14:47:48;;;;;;;3.80;2.30;;;;;;;;;;4790642;30;20051;-85
2024/03/05 14:50:19;;;;;;;4.90;2.30;;;;;;;;;;4791015;30;20058;-81
2024/03/05 14:52:53;;;;;;;6.68;2.38;;;;;;;;;;4789877;30;20047;-83
2024/03/05 14:55:26;;;;;;;5.30;2.35;;;;;;;;;;4790281;30;20055;-83
2024/03/05 14:57:56;;;;;;;6.68;2.30;;;;;;;;;;4788503;30;20074;-81
2024/03/05 15:00:27;;;;;;;4.65;2.30;;;;;;;;;;4788157;30;20062;-82
2024/03/05 15:02:58;;;;;;;6.80;2.40;;;;;;;;;;4789897;30;20047;-83
2024/03/05 15:05:29;;;;;;;5.70;2.30;;;;;;;;;;4789705;29;20506;-82
2024/03/05 15:07:59;;;;;;;7.53;2.65;;;;;;;;;;4775882;30;20396;-81
2024/03/05 15:10:30;;;;;;;8.60;2.53;;;;;;;;;;4787169;30;20063;-85
2024/03/05 15:13:03;;;;;;;4.18;2.38;;;;;;;;;;4772274;30;20062;-83
2024/03/05 15:15:33;;;;;;;7.03;3.00;;;;;;;;;;4778564;30;20396;-81
2024/03/05 15:18:05;;;;;;;9.02;2.70;;;;;;;;;;4796112;29;20474;-83
2024/03/05 15:20:35;;;;;;;8.88;3.97;;;;;;;;;;4803909;29;20063;-81
2024/03/05 15:23:05;;;;;;;5.53;2.53;;;;;;;;;;4807856;29;20065;-85
2024/03/05 15:25:37;;;;;;;4.40;2.25;;;;;;;;;;4808071;29;20479;-87
2024/03/05 15:28:11;;;;;;;6.13;2.05;;;;;;;;;;4793270;29;20063;-83
2024/03/05 15:30:41;;;;;;;8.35;2.38;;;;;;;;;;4791091;29;20729;-83
2024/03/05 15:33:11;;;;;;;6.18;2.97;;;;;;;;;;4790214;29;20408;-83
2024/03/05 15:35:42;;;;;;;7.00;2.28;;;;;;;;;;4771017;30;20073;-83
2024/03/05 15:38:13;;;;;;;4.93;2.20;;;;;;;;;;4791040;29;20043;-83
2024/03/05 15:40:44;;;;;;;4.40;2.10;;;;;;;;;;4788696;29;20511;-83
2024/03/05 15:43:14;;;;;;;4.80;2.50;;;;;;;;;;4788202;29;20127;-83
2024/03/05 15:45:44;;;;;;;5.35;2.50;;;;;;;;;;4773143;30;20051;-84
2024/03/05 15:48:15;;;;;;;8.10;2.75;;;;;;;;;;4787346;30;20066;-82
2024/03/05 15:50:45;;;;;;;8.38;2.33;;;;;;;;;;4772545;30;20074;-81
2024/03/05 15:53:16;;;;;;;6.15;2.60;;;;;;;;;;4772771;30;20058;-81
2024/03/05 15:55:46;;;;;;;5.25;2.83;;;;;;;;;;4772489;30;21065;-81
2024/03/05 16:01:04;;;;;;;6.90;2.40;;;;;;;;;;4773038;30;20051;-82
2024/03/05 16:03:35;;;;;;;3.88;1.80;;;;;;;;;;4787770;30;20051;-82
2024/03/05 16:06:19;;;;;;;4.70;2.20;;;;;;;;;;4772703;30;20063;-85
2024/03/05 16:08:49;;;;;;;6.03;2.30;;;;;;;;;;4773033;30;20419;-85
2024/03/05 16:11:19;;;;;;;4.32;1.52;;;;;;;;;;4788411;30;20078;-86
2024/03/05 16:13:51;;;;;;;5.32;1.90;;;;;;;;;;4787937;30;20630;-85
2024/03/05 16:16:25;;;;;;;2.40;1.55;;;;;;;;;;4787710;29;20063;-85
2024/03/05 16:18:58;;;;;;;5.72;2.72;;;;;;;;;;4780808;30;20423;-83
2024/03/05 16:21:28;;;;;;;7.43;2.10;;;;;;;;;;4796755;29;20415;-82
2024/03/05 16:24:04;;;;;;;6.13;2.03;;;;;;;;;;4804791;29;20047;-82
2024/03/05 16:26:35;;;;;;;3.88;1.85;;;;;;;;;;4805578;29;20502;-82
2024/03/05 16:29:06;;;;;;;5.80;2.10;;;;;;;;;;4804794;29;20058;-83
2024/03/05 16:31:37;;;;;;;3.53;2.00;;;;;;;;;;4805738;29;20051;-83
2024/03/05 16:34:10;;;;;;;2.80;1.90;;;;;;;;;;4805770;29;20118;-83
2024/03/05 16:36:40;;;;;;;5.00;2.50;;;;;;;;;;4804779;29;20046;-83
2024/03/05 16:39:18;;;;;;;7.38;5.40;;;;;;;;;;4803551;29;20047;-84
2024/03/05 16:41:49;;;;;;;5.07;1.67;;;;;;;;;;4787782;30;20051;-82
2024/03/05 16:44:19;;;;;;;5.35;2.58;;;;;;;;;;4787591;30;20442;-84
2024/03/05 16:46:50;;;;;;;3.33;1.55;;;;;;;;;;4787376;30;20051;-82
2024/03/05 16:49:20;;;;;;;4.70;1.80;;;;;;;;;;4787040;30;20549;-87
2024/03/05 16:51:50;;;;;;;4.18;1.83;;;;;;;;;;4787249;30;20062;-83
2024/03/05 16:54:20;;;;;;;4.57;1.70;;;;;;;;;;4771423;30;20086;-85
2024/03/05 16:56:50;;;;;;;6.13;1.70;;;;;;;;;;4787001;30;20047;-83